createdAt,value
2023-04-10T00:03:33.967Z,26.42
2023-04-10T00:08:35.615Z,25.60
2023-04-10T00:13:37.118Z,26.65
2023-04-10T00:18:38.662Z,25.67
2023-04-10T00:23:40.518Z,24.70
2023-04-10T00:28:42.075Z,26.08
2023-04-10T00:33:43.571Z,23.15
2023-04-10T00:38:45.111Z,23.42
2023-04-10T00:43:46.693Z,23.38
2023-04-10T00:48:48.244Z,22.05
2023-04-10T00:53:51.428Z,22.55
2023-04-10T00:58:53.208Z,23.67
2023-04-10T01:03:55.678Z,26.85
2023-04-10T01:09:16.101Z,23.48
2023-04-10T01:14:32.168Z,23.08
2023-04-10T01:19:36.561Z,22.50
2023-04-10T01:24:57.943Z,22.95
2023-04-10T01:30:02.592Z,25.00
2023-04-10T01:35:07.388Z,23.27
2023-04-10T01:40:14.362Z,23.15
2023-04-10T01:45:19.980Z,21.30
2023-04-10T01:50:25.507Z,21.58
2023-04-10T01:55:27.802Z,21.55
2023-04-10T02:00:29.384Z,23.88
2023-04-10T02:05:41.072Z,19.73
2023-04-10T02:10:54.496Z,23.27
2023-04-10T02:16:00.703Z,20.33
2023-04-10T02:26:07.807Z,24.88
2023-04-10T02:31:09.333Z,20.33
2023-04-10T02:36:11.000Z,18.20
2023-04-10T02:41:12.563Z,18.63
2023-04-10T02:46:14.206Z,19.90
2023-04-10T02:51:15.993Z,18.02
2023-04-10T02:56:18.590Z,18.20
2023-04-10T03:01:20.695Z,24.58
2023-04-10T03:06:23.615Z,18.55
2023-04-10T03:11:25.172Z,19.05
2023-04-10T03:16:26.711Z,18.55
2023-04-10T03:21:28.727Z,20.08
2023-04-10T03:26:30.432Z,18.42
2023-04-10T03:31:32.010Z,19.73
2023-04-10T03:36:33.604Z,16.50
2023-04-10T03:41:35.143Z,16.85
2023-04-10T03:46:36.685Z,15.20
2023-04-10T03:51:38.230Z,14.25
2023-04-10T03:56:39.754Z,14.98
2023-04-10T04:01:41.312Z,14.13
2023-04-10T04:06:42.905Z,13.95
2023-04-10T04:11:44.445Z,13.63
2023-04-10T04:16:46.002Z,13.85
2023-04-10T04:21:47.522Z,13.63
2023-04-10T04:26:48.990Z,13.25
2023-04-10T04:31:50.862Z,12.55
2023-04-10T04:36:52.491Z,13.23
2023-04-10T04:41:53.953Z,11.93
2023-04-10T04:46:55.445Z,13.63
2023-04-10T04:51:56.927Z,11.70
2023-04-10T04:56:58.437Z,12.77
2023-04-10T05:02:00.081Z,12.65
2023-04-10T05:07:01.611Z,13.65
2023-04-10T05:12:03.849Z,14.98
2023-04-10T05:17:05.520Z,10.35
2023-04-10T05:22:07.067Z,12.32
2023-04-10T05:27:08.589Z,14.20
2023-04-10T05:32:11.287Z,12.13
2023-04-10T05:37:13.081Z,10.32
2023-04-10T05:42:14.841Z,10.57
2023-04-10T05:47:16.319Z,14.70
2023-04-10T05:52:17.815Z,12.80
2023-04-10T05:57:19.541Z,12.82
2023-04-10T06:02:21.916Z,15.52
2023-04-10T06:07:23.603Z,15.93
2023-04-10T06:12:25.316Z,15.48
2023-04-10T06:17:28.224Z,12.45
2023-04-10T06:22:29.667Z,13.65
2023-04-10T06:27:31.428Z,12.82
2023-04-10T06:32:32.950Z,13.52
2023-04-10T06:37:34.618Z,13.90
2023-04-10T06:42:36.631Z,12.40
2023-04-10T06:47:38.251Z,12.90
2023-04-10T06:52:39.817Z,11.35
2023-04-10T06:57:42.010Z,12.48
2023-04-10T07:02:43.570Z,12.65
2023-04-10T07:07:45.333Z,11.75
2023-04-10T07:12:46.839Z,12.57
2023-04-10T07:17:48.392Z,14.45
2023-04-10T07:22:50.000Z,12.07
2023-04-10T07:27:51.499Z,17.17
2023-04-10T07:32:53.194Z,12.55
2023-04-10T07:37:54.815Z,12.15
2023-04-10T07:42:56.558Z,11.48
2023-04-10T07:47:59.394Z,12.85
2023-04-10T07:53:03.572Z,11.93
2023-04-10T07:58:05.542Z,11.68
2023-04-10T08:03:07.502Z,9.43
2023-04-10T08:08:09.165Z,13.05
2023-04-10T08:13:10.640Z,14.73
2023-04-10T08:18:12.168Z,11.57
2023-04-10T08:23:20.563Z,12.38
2023-04-10T08:28:22.521Z,12.52
2023-04-10T08:33:24.001Z,13.65
2023-04-10T08:38:27.879Z,11.95
2023-04-10T08:43:29.427Z,12.35
2023-04-10T08:48:53.542Z,10.73
2023-04-10T08:54:02.584Z,15.20
2023-04-10T08:59:04.154Z,11.05
2023-04-10T09:04:06.587Z,11.20
2023-04-10T09:09:08.404Z,14.20
2023-04-10T09:14:28.895Z,12.27
2023-04-10T09:19:31.764Z,14.63
2023-04-10T09:24:41.994Z,13.63
2023-04-10T09:29:50.294Z,12.13
2023-04-10T09:34:54.211Z,12.98
2023-04-10T09:39:55.734Z,11.60
2023-04-10T09:44:57.659Z,11.20
2023-04-10T09:50:00.792Z,13.27
2023-04-10T09:55:09.696Z,12.63
2023-04-10T10:00:14.169Z,13.75
2023-04-10T10:05:16.325Z,11.50
2023-04-10T10:10:17.907Z,11.93
2023-04-10T10:15:38.935Z,11.10
2023-04-10T10:20:45.248Z,13.80
2023-04-10T10:25:46.851Z,12.90
2023-04-10T10:30:51.493Z,13.20
2023-04-10T10:35:53.622Z,14.30
2023-04-10T10:41:06.108Z,13.40
2023-04-10T10:46:11.311Z,12.57
2023-04-10T10:51:12.934Z,12.55
2023-04-10T10:56:20.750Z,16.52
2023-04-10T11:01:22.358Z,15.13
2023-04-10T11:06:51.273Z,20.42
2023-04-10T11:11:59.278Z,15.43
2023-04-10T11:17:01.059Z,13.68
2023-04-10T11:22:08.450Z,13.73
2023-04-10T11:27:46.343Z,11.90
2023-04-10T11:32:50.934Z,11.80
2023-04-10T11:37:52.975Z,12.80
2023-04-10T11:43:12.584Z,11.88
2023-04-10T11:48:17.077Z,12.65
2023-04-10T11:53:19.946Z,11.20
2023-04-10T11:58:26.366Z,11.82
2023-04-10T12:03:39.857Z,10.77
2023-04-10T12:08:47.610Z,12.77
2023-04-10T12:18:54.133Z,10.88
2023-04-10T12:23:55.814Z,11.23
2023-04-10T12:28:58.714Z,10.48
2023-04-10T12:34:02.195Z,11.48
2023-04-10T12:39:05.080Z,10.90
2023-04-10T12:44:14.014Z,8.55
2023-04-10T12:49:16.956Z,12.50
2023-04-10T12:54:35.899Z,12.38
2023-04-10T12:59:37.570Z,9.13
2023-04-10T13:04:40.003Z,9.25
2023-04-10T13:09:41.680Z,8.57
2023-04-10T13:14:43.193Z,8.32
2023-04-10T13:19:44.698Z,8.27
2023-04-10T13:24:46.309Z,8.43
2023-04-10T13:29:47.833Z,8.90
2023-04-10T13:34:49.353Z,8.93
2023-04-10T13:39:50.910Z,10.30
2023-04-10T13:44:52.452Z,9.30
2023-04-10T13:49:53.932Z,9.07
2023-04-10T13:54:55.463Z,13.95
2023-04-10T13:59:57.031Z,7.65
2023-04-10T14:04:59.846Z,7.90
2023-04-10T14:10:02.101Z,11.07
2023-04-10T14:15:03.799Z,8.90
2023-04-10T14:20:06.054Z,6.90
2023-04-10T14:25:13.443Z,7.57
2023-04-10T14:30:15.565Z,6.72
2023-04-10T14:35:17.122Z,10.70
2023-04-10T14:40:18.626Z,6.85
2023-04-10T14:45:20.136Z,8.48
2023-04-10T14:50:21.682Z,9.85
2023-04-10T14:55:24.744Z,9.95
2023-04-10T15:00:26.786Z,9.50
2023-04-10T15:05:28.391Z,10.45
2023-04-10T15:10:30.783Z,16.60
2023-04-10T15:15:32.298Z,12.27
2023-04-10T15:20:33.812Z,13.63
2023-04-10T15:25:35.388Z,15.10
2023-04-10T15:30:36.877Z,12.20
2023-04-10T15:35:38.454Z,17.25
2023-04-10T15:40:39.997Z,12.02
2023-04-10T15:45:41.589Z,13.50
2023-04-10T15:50:43.261Z,15.35
2023-04-10T15:55:44.889Z,14.30
2023-04-10T16:00:46.442Z,19.30
2023-04-10T16:05:47.922Z,10.50
2023-04-10T16:10:50.705Z,15.98
2023-04-10T16:15:52.219Z,11.40
2023-04-10T16:20:53.765Z,9.40
2023-04-10T16:25:55.297Z,9.32
2023-04-10T16:30:57.356Z,12.02
2023-04-10T16:35:58.887Z,12.85
2023-04-10T16:41:04.430Z,13.23
2023-04-10T16:46:06.123Z,11.30
2023-04-10T16:51:14.650Z,12.32
2023-04-10T16:56:16.206Z,13.43
2023-04-10T17:01:20.860Z,10.43
2023-04-10T17:06:22.512Z,12.35
2023-04-10T17:11:24.141Z,11.18
2023-04-10T17:16:25.729Z,16.35
2023-04-10T17:21:27.224Z,11.73
2023-04-10T17:26:28.785Z,10.38
2023-04-10T17:31:31.318Z,12.63
2023-04-10T17:36:32.890Z,6.20
2023-04-10T17:41:34.473Z,7.70
2023-04-10T17:46:36.204Z,8.35
2023-04-10T17:51:38.806Z,6.75
2023-04-10T17:56:40.367Z,8.18
2023-04-10T18:01:41.984Z,8.48
2023-04-10T18:06:43.638Z,8.05
2023-04-10T18:11:45.334Z,9.20
2023-04-10T18:16:46.967Z,8.20
2023-04-10T18:21:48.559Z,8.60
2023-04-10T18:26:50.224Z,9.88
2023-04-10T18:31:52.036Z,10.30
2023-04-10T18:36:54.020Z,11.57
2023-04-10T18:41:57.669Z,10.48
2023-04-10T18:47:04.337Z,12.73
2023-04-10T18:52:07.443Z,13.73
2023-04-10T18:57:09.012Z,13.93
2023-04-10T19:02:10.741Z,8.82
2023-04-10T19:07:12.326Z,12.48
2023-04-10T19:12:14.299Z,13.45
2023-04-10T19:17:15.989Z,12.25
2023-04-10T19:22:17.476Z,12.40
2023-04-10T19:27:19.042Z,13.20
2023-04-10T19:32:20.597Z,16.40
2023-04-10T19:37:22.174Z,16.23
2023-04-10T19:42:23.752Z,11.20
2023-04-10T19:47:25.289Z,20.48
2023-04-10T19:52:26.910Z,11.50
2023-04-10T19:57:28.490Z,16.95
2023-04-10T20:02:30.416Z,17.90
2023-04-10T20:07:33.378Z,18.60
2023-04-10T20:12:34.950Z,18.08
2023-04-10T20:17:36.512Z,19.77
2023-04-10T20:22:37.988Z,16.77
2023-04-10T20:27:39.449Z,20.35
2023-04-10T20:32:41.108Z,17.35
2023-04-10T20:37:42.672Z,18.27
2023-04-10T20:42:44.157Z,17.90
2023-04-10T20:47:45.736Z,20.25
2023-04-10T20:52:47.270Z,18.35
2023-04-10T20:57:48.810Z,21.95
2023-04-10T21:02:50.438Z,24.13
2023-04-10T21:07:53.398Z,20.08
2023-04-10T21:12:54.921Z,21.88
2023-04-10T21:17:56.485Z,24.17
2023-04-10T21:22:58.003Z,17.95
2023-04-10T21:28:00.430Z,23.23
2023-04-10T21:33:02.092Z,24.88
2023-04-10T21:38:03.734Z,21.65
2023-04-10T21:43:05.563Z,22.92
2023-04-10T21:48:07.146Z,25.50
2023-04-10T21:53:08.948Z,15.18
2023-04-10T21:58:10.494Z,17.88
2023-04-10T22:03:12.990Z,14.93
2023-04-10T22:08:14.991Z,20.75
2023-04-10T22:13:29.754Z,16.23
2023-04-10T22:18:32.628Z,17.85
2023-04-10T22:23:34.146Z,14.70
2023-04-10T22:28:35.724Z,15.73
2023-04-10T22:33:37.945Z,25.17
2023-04-10T22:38:39.499Z,33.67
2023-04-10T22:43:40.962Z,40.55
2023-04-10T22:48:42.589Z,47.08
2023-04-10T22:53:44.561Z,47.60
2023-04-10T22:58:46.109Z,54.05
2023-04-10T23:03:48.453Z,45.92
2023-04-10T23:08:51.391Z,44.38
2023-04-10T23:13:52.963Z,42.15
2023-04-10T23:18:54.689Z,26.42
2023-04-10T23:23:56.341Z,25.70
2023-04-10T23:28:58.004Z,14.07
2023-04-10T23:33:59.521Z,14.75
2023-04-10T23:39:01.043Z,13.10
2023-04-10T23:44:02.883Z,11.25
2023-04-10T23:49:04.399Z,13.90
2023-04-10T23:54:06.400Z,10.30
2023-04-10T23:59:07.912Z,12.43
